Time;durP1;ratioP1;P1;durP2;ratioP2;P2;SDS_P1;SDS_P2;PMS_P1;PMS_P2;Temp;Humidity;BMP_temperature;BMP_pressure;BME280_temperature;BME280_humidity;BME280_pressure;Samples;Min_cycle;Max_cycle;Signal;HPM_P1;HPM_P2
2023/04/28 00:01:49;;;;;;;0.10;0.10;;;13.60;99.90;;;;;;5059375;28;20192;-82
2023/04/28 00:04:14;;;;;;;0.10;0.10;;;13.50;99.90;;;;;;5061925;28;20258;-82
2023/04/28 00:06:40;;;;;;;0.10;0.10;;;13.40;99.90;;;;;;5060259;28;20212;-83
2023/04/28 00:09:09;;;;;;;0.10;0.10;;;13.40;99.90;;;;;;5061803;28;20181;-82
2023/04/28 00:11:36;;;;;;;0.10;0.10;;;13.00;99.90;;;;;;5058735;28;20175;-82
2023/04/28 00:14:01;;;;;;;0.10;0.10;;;12.80;99.90;;;;;;5062016;28;20196;-82
2023/04/28 00:16:26;;;;;;;0.00;0.00;;;12.80;99.90;;;;;;5057960;28;20387;-83
2023/04/28 00:18:52;;;;;;;0.10;0.10;;;12.90;99.90;;;;;;5060665;28;20211;-83
2023/04/28 00:21:17;;;;;;;0.10;0.10;;;13.00;99.90;;;;;;5056464;28;20644;-83
2023/04/28 00:23:43;;;;;;;0.10;0.10;;;13.00;99.90;;;;;;5058672;28;20191;-84
2023/04/28 00:26:08;;;;;;;0.10;0.10;;;13.10;99.90;;;;;;5057478;28;20573;-83
2023/04/28 00:28:35;;;;;;;0.10;0.10;;;13.20;99.90;;;;;;5061826;28;20202;-83
2023/04/28 00:31:01;;;;;;;0.10;0.10;;;13.20;99.90;;;;;;5057281;28;20181;-83
2023/04/28 00:33:27;;;;;;;0.10;0.10;;;13.30;99.90;;;;;;5060065;28;20179;-83
2023/04/28 00:35:59;;;;;;;0.10;0.10;;;13.30;99.90;;;;;;5056496;28;20179;-83
2023/04/28 00:38:25;;;;;;;0.10;0.10;;;13.40;99.90;;;;;;5060073;28;20207;-83
2023/04/28 00:40:51;;;;;;;0.10;0.10;;;13.40;99.90;;;;;;5059556;28;20226;-82
2023/04/28 00:43:17;;;;;;;0.10;0.10;;;13.40;99.90;;;;;;5058594;28;20225;-83
2023/04/28 00:45:42;;;;;;;0.10;0.10;;;13.30;99.90;;;;;;5060193;28;20716;-82
2023/04/28 00:48:08;;;;;;;0.10;0.10;;;13.10;99.90;;;;;;5060575;28;20224;-84
2023/04/28 00:50:33;;;;;;;0.10;0.10;;;13.00;99.90;;;;;;5061866;28;20663;-83
2023/04/28 00:52:59;;;;;;;0.10;0.10;;;12.80;99.90;;;;;;5062920;28;20209;-83
2023/04/28 00:55:26;;;;;;;0.10;0.10;;;12.70;99.90;;;;;;5060995;28;20645;-82
2023/04/28 00:57:55;;;;;;;0.10;0.10;;;12.60;99.90;;;;;;5060944;28;20302;-83
2023/04/28 01:00:20;;;;;;;0.10;0.10;;;12.40;99.90;;;;;;5061028;28;20939;-83
2023/04/28 01:02:46;;;;;;;0.10;0.10;;;12.30;99.90;;;;;;5058659;28;20201;-83
2023/04/28 01:05:12;;;;;;;0.10;0.10;;;12.30;99.90;;;;;;5063067;28;20203;-82
2023/04/28 01:07:38;;;;;;;0.10;0.10;;;12.20;99.90;;;;;;5062264;28;20230;-83
2023/04/28 01:10:03;;;;;;;0.10;0.10;;;12.20;99.90;;;;;;5057600;28;20671;-83
2023/04/28 01:12:29;;;;;;;0.00;0.00;;;12.10;99.90;;;;;;5058493;28;20270;-83
2023/04/28 01:14:55;;;;;;;0.10;0.10;;;12.20;99.90;;;;;;5060685;28;20734;-82
2023/04/28 01:17:21;;;;;;;0.10;0.10;;;12.20;99.90;;;;;;5063017;28;20208;-83
2023/04/28 01:19:46;;;;;;;0.10;0.10;;;12.40;99.90;;;;;;5060953;28;20195;-83
2023/04/28 01:22:15;;;;;;;0.10;0.10;;;12.50;99.90;;;;;;5058792;28;20516;-83
2023/04/28 01:24:41;;;;;;;0.10;0.10;;;12.70;99.90;;;;;;5061359;28;20194;-83
2023/04/28 01:27:06;;;;;;;0.10;0.10;;;12.70;99.90;;;;;;5064406;28;20222;-82
2023/04/28 01:29:32;;;;;;;0.00;0.00;;;12.80;99.90;;;;;;5067180;28;20244;-83
2023/04/28 01:31:57;;;;;;;0.10;0.10;;;12.80;99.90;;;;;;5070721;28;20188;-82
2023/04/28 01:34:23;;;;;;;0.10;0.10;;;12.90;99.90;;;;;;5069263;28;20196;-85
2023/04/28 01:36:48;;;;;;;0.10;0.10;;;12.80;99.90;;;;;;5069570;28;20196;-82
2023/04/28 01:39:14;;;;;;;0.07;0.07;;;12.90;99.90;;;;;;5070183;28;20189;-81
2023/04/28 01:41:39;;;;;;;0.10;0.10;;;12.90;99.90;;;;;;5067767;28;20195;-82
2023/04/28 01:44:06;;;;;;;0.00;0.00;;;12.90;99.90;;;;;;5071117;28;20231;-83
2023/04/28 01:46:32;;;;;;;0.10;0.10;;;12.90;99.90;;;;;;5070192;28;20242;-81
2023/04/28 01:48:57;;;;;;;0.10;0.10;;;12.90;99.90;;;;;;5066500;28;20687;-83
2023/04/28 01:51:23;;;;;;;0.10;0.10;;;12.80;99.90;;;;;;5066900;28;20243;-83
2023/04/28 01:53:48;;;;;;;0.10;0.10;;;12.80;99.90;;;;;;5071407;28;20195;-83
2023/04/28 01:56:14;;;;;;;0.10;0.10;;;12.80;99.90;;;;;;5068226;28;20189;-83
2023/04/28 01:58:39;;;;;;;0.10;0.10;;;12.40;99.90;;;;;;5067253;28;20227;-82
2023/04/28 02:01:05;;;;;;;0.10;0.10;;;12.40;99.90;;;;;;5068590;28;20675;-82
2023/04/28 02:03:31;;;;;;;0.10;0.10;;;12.40;99.90;;;;;;5063331;28;20658;-83
2023/04/28 02:05:57;;;;;;;0.10;0.10;;;12.50;99.90;;;;;;5064736;28;20191;-83
2023/04/28 02:08:22;;;;;;;0.10;0.10;;;12.60;99.90;;;;;;5064472;28;20259;-84
2023/04/28 02:10:48;;;;;;;0.10;0.10;;;12.60;99.90;;;;;;5068009;28;20248;-83
2023/04/28 02:13:15;;;;;;;0.10;0.10;;;12.30;99.90;;;;;;5065280;28;20267;-83
2023/04/28 02:15:41;;;;;;;0.10;0.10;;;12.10;99.90;;;;;;5067447;28;20986;-83
2023/04/28 02:18:07;;;;;;;0.10;0.10;;;12.10;99.90;;;;;;5062001;28;20202;-84
2023/04/28 02:20:33;;;;;;;0.10;0.10;;;12.10;99.90;;;;;;5064767;28;20205;-83
2023/04/28 02:22:58;;;;;;;0.10;0.10;;;12.00;99.90;;;;;;5064423;28;20744;-84
2023/04/28 02:25:24;;;;;;;0.10;0.10;;;12.00;99.90;;;;;;5063163;28;20183;-82
2023/04/28 02:27:50;;;;;;;0.10;0.10;;;12.20;99.90;;;;;;5066948;28;20220;-82
2023/04/28 02:30:15;;;;;;;0.00;0.00;;;12.30;99.90;;;;;;5063944;28;20908;-81
2023/04/28 02:32:41;;;;;;;0.10;0.10;;;12.20;99.90;;;;;;5064553;28;20192;-83
2023/04/28 02:35:07;;;;;;;0.10;0.10;;;12.00;99.90;;;;;;5062445;28;20644;-83
2023/04/28 02:37:32;;;;;;;0.10;0.10;;;11.70;99.90;;;;;;5064517;28;20714;-82
2023/04/28 02:39:58;;;;;;;0.10;0.10;;;11.60;99.90;;;;;;5063171;28;20432;-83
2023/04/28 02:42:23;;;;;;;0.10;0.10;;;11.70;99.90;;;;;;5063071;28;20185;-83
2023/04/28 02:44:49;;;;;;;0.10;0.10;;;11.80;99.90;;;;;;5061705;28;20275;-83
2023/04/28 02:47:14;;;;;;;0.10;0.10;;;12.00;99.90;;;;;;5065831;28;20627;-82
2023/04/28 02:49:40;;;;;;;0.10;0.10;;;12.10;99.90;;;;;;5065058;28;20187;-83
2023/04/28 02:52:05;;;;;;;0.10;0.10;;;12.30;99.90;;;;;;5060101;28;20773;-82
2023/04/28 02:54:33;;;;;;;0.10;0.10;;;12.30;99.90;;;;;;5064020;28;20185;-83
2023/04/28 02:56:58;;;;;;;0.10;0.10;;;12.20;99.90;;;;;;5066601;28;20202;-84
2023/04/28 02:59:24;;;;;;;0.10;0.10;;;12.30;99.90;;;;;;5061153;28;20194;-82
2023/04/28 03:01:53;;;;;;;0.10;0.10;;;12.20;99.90;;;;;;5063577;28;20185;-83
2023/04/28 03:04:18;;;;;;;0.10;0.10;;;12.30;99.90;;;;;;5066746;28;20206;-82
2023/04/28 03:06:44;;;;;;;0.10;0.10;;;12.30;99.90;;;;;;5063861;28;20210;-82
2023/04/28 03:09:10;;;;;;;0.10;0.10;;;12.20;99.90;;;;;;5066482;28;20227;-82
2023/04/28 03:11:35;;;;;;;0.10;0.10;;;12.10;99.90;;;;;;5064663;28;20180;-82
2023/04/28 03:14:01;;;;;;;0.10;0.10;;;12.00;99.90;;;;;;5063884;28;20207;-83
2023/04/28 03:16:26;;;;;;;0.10;0.10;;;12.10;99.90;;;;;;5067275;28;20193;-83
2023/04/28 03:18:52;;;;;;;0.10;0.10;;;12.10;99.90;;;;;;5061580;28;20305;-82
2023/04/28 03:21:17;;;;;;;0.00;0.00;;;12.30;99.90;;;;;;5065849;28;20196;-83
2023/04/28 03:23:43;;;;;;;0.10;0.10;;;12.10;99.90;;;;;;5061790;28;20192;-83
2023/04/28 03:26:09;;;;;;;0.10;0.10;;;12.20;99.90;;;;;;5061256;28;20204;-82
2023/04/28 03:28:34;;;;;;;0.10;0.10;;;12.00;99.90;;;;;;5059539;28;20217;-83
2023/04/28 03:31:00;;;;;;;0.10;0.10;;;11.90;99.90;;;;;;5060872;28;20561;-82
2023/04/28 03:33:25;;;;;;;0.10;0.10;;;12.00;99.90;;;;;;5060354;28;20646;-84
2023/04/28 03:35:52;;;;;;;0.10;0.10;;;11.80;99.90;;;;;;5061880;28;20189;-82
2023/04/28 03:38:18;;;;;;;0.10;0.10;;;11.70;99.90;;;;;;5061737;28;20196;-83
2023/04/28 03:40:43;;;;;;;0.10;0.10;;;11.90;99.90;;;;;;5066262;28;20187;-82
2023/04/28 03:43:09;;;;;;;0.10;0.10;;;11.90;99.90;;;;;;5059995;28;20177;-83
2023/04/28 03:45:34;;;;;;;0.10;0.10;;;12.00;99.90;;;;;;5061852;28;20598;-83
2023/04/28 03:48:00;;;;;;;0.10;0.10;;;12.10;99.90;;;;;;5060437;28;20301;-82
2023/04/28 03:50:25;;;;;;;0.10;0.10;;;12.20;99.90;;;;;;5054929;28;20188;-84
2023/04/28 03:52:51;;;;;;;0.10;0.10;;;12.30;99.90;;;;;;5066864;28;20290;-82
2023/04/28 03:55:16;;;;;;;0.10;0.10;;;12.10;99.90;;;;;;5063359;28;20188;-83
2023/04/28 03:57:42;;;;;;;0.10;0.10;;;11.90;99.90;;;;;;5060302;28;20217;-83
2023/04/28 04:00:08;;;;;;;0.10;0.10;;;12.10;99.90;;;;;;5063133;28;20180;-83
2023/04/28 04:02:34;;;;;;;0.10;0.10;;;12.30;99.90;;;;;;5063192;28;20189;-83
2023/04/28 04:05:00;;;;;;;0.10;0.10;;;12.20;99.90;;;;;;5057500;28;20209;-82
2023/04/28 04:07:25;;;;;;;0.10;0.10;;;12.10;99.90;;;;;;5060113;28;20221;-83
2023/04/28 04:09:51;;;;;;;0.10;0.10;;;12.30;99.90;;;;;;5064183;28;20424;-83
2023/04/28 04:12:17;;;;;;;0.10;0.10;;;12.20;99.90;;;;;;5059808;28;20238;-83
2023/04/28 04:14:43;;;;;;;0.10;0.10;;;12.00;99.90;;;;;;5061777;28;20184;-83
2023/04/28 04:17:08;;;;;;;0.10;0.10;;;12.10;99.90;;;;;;5064596;28;20212;-83
2023/04/28 04:19:34;;;;;;;0.10;0.10;;;12.20;99.90;;;;;;5065074;28;20188;-82
2023/04/28 04:21:59;;;;;;;0.10;0.10;;;12.00;99.90;;;;;;5063105;28;20231;-82
2023/04/28 04:24:25;;;;;;;0.10;0.10;;;11.80;99.90;;;;;;5060257;28;20190;-82
2023/04/28 04:26:50;;;;;;;0.10;0.10;;;12.00;99.90;;;;;;5062289;28;20299;-82
2023/04/28 04:29:16;;;;;;;0.10;0.10;;;12.00;99.90;;;;;;5061690;28;20182;-83
2023/04/28 04:31:44;;;;;;;0.10;0.10;;;11.80;99.90;;;;;;5062236;28;20202;-83
2023/04/28 04:34:10;;;;;;;0.10;0.10;;;12.00;99.90;;;;;;5062105;28;20211;-82
2023/04/28 04:36:35;;;;;;;0.10;0.10;;;12.00;99.90;;;;;;5058078;28;20951;-82
2023/04/28 04:39:01;;;;;;;0.10;0.10;;;11.80;99.90;;;;;;5058677;28;20210;-82
2023/04/28 04:41:26;;;;;;;0.10;0.10;;;11.90;99.90;;;;;;5058972;28;20192;-83
2023/04/28 04:43:52;;;;;;;0.10;0.10;;;12.10;99.90;;;;;;5061316;28;20189;-83
2023/04/28 04:46:18;;;;;;;0.10;0.10;;;11.80;99.90;;;;;;5058467;28;20768;-82
2023/04/28 04:48:44;;;;;;;0.10;0.10;;;11.60;99.90;;;;;;5060317;28;20316;-83
2023/04/28 04:51:10;;;;;;;0.10;0.10;;;11.40;99.90;;;;;;5056364;28;20300;-83
2023/04/28 04:53:35;;;;;;;0.10;0.10;;;11.40;99.90;;;;;;5059549;28;20184;-83
2023/04/28 04:56:01;;;;;;;0.10;0.10;;;11.50;99.90;;;;;;5065979;28;20404;-83
2023/04/28 04:58:27;;;;;;;0.10;0.10;;;11.70;99.90;;;;;;5062376;28;20674;-83
2023/04/28 05:00:53;;;;;;;0.10;0.10;;;11.90;99.90;;;;;;5067342;28;20247;-83
2023/04/28 05:03:18;;;;;;;0.10;0.10;;;12.10;99.90;;;;;;5062037;28;20275;-82
2023/04/28 05:05:44;;;;;;;0.10;0.10;;;12.20;99.90;;;;;;5060487;28;20201;-82
2023/04/28 05:08:10;;;;;;;0.10;0.10;;;12.20;99.90;;;;;;5060594;28;20359;-83
2023/04/28 05:10:36;;;;;;;0.00;0.00;;;12.30;99.90;;;;;;5064923;28;20181;-83
2023/04/28 05:13:02;;;;;;;0.10;0.10;;;12.30;99.90;;;;;;5062778;28;20196;-84
2023/04/28 05:15:28;;;;;;;0.10;0.10;;;12.20;99.90;;;;;;5063954;28;20215;-84
2023/04/28 05:17:57;;;;;;;0.10;0.10;;;12.10;99.90;;;;;;5065527;28;20232;-83
2023/04/28 05:20:23;;;;;;;0.00;0.00;;;12.30;99.90;;;;;;5059691;28;20252;-82
2023/04/28 05:22:48;;;;;;;0.10;0.10;;;12.40;99.90;;;;;;5062565;28;20880;-83
2023/04/28 05:25:14;;;;;;;0.10;0.10;;;12.50;99.90;;;;;;5062242;28;20186;-83
2023/04/28 05:27:40;;;;;;;0.10;0.10;;;12.40;99.90;;;;;;5059453;28;20246;-83
2023/04/28 05:30:07;;;;;;;0.10;0.10;;;12.30;99.90;;;;;;5056628;28;20203;-83
2023/04/28 05:32:33;;;;;;;0.10;0.10;;;12.40;99.90;;;;;;5066225;28;20174;-82
2023/04/28 05:34:59;;;;;;;0.10;0.10;;;12.50;99.90;;;;;;5066214;28;20172;-82
2023/04/28 05:37:26;;;;;;;0.00;0.00;;;12.20;99.90;;;;;;5064355;28;20198;-83
2023/04/28 05:39:54;;;;;;;0.10;0.10;;;12.30;99.90;;;;;;5064813;28;20244;-83
2023/04/28 05:42:20;;;;;;;0.10;0.10;;;11.90;99.90;;;;;;5066009;28;20174;-82
2023/04/28 05:44:45;;;;;;;0.10;0.10;;;12.00;99.90;;;;;;5062774;28;20202;-83
2023/04/28 05:47:11;;;;;;;0.10;0.10;;;12.20;99.90;;;;;;5058895;28;20229;-83
2023/04/28 05:49:36;;;;;;;0.00;0.00;;;12.30;99.90;;;;;;5060623;28;20181;-83
2023/04/28 05:52:02;;;;;;;0.10;0.10;;;12.10;99.90;;;;;;5064208;28;20186;-82
2023/04/28 05:54:28;;;;;;;0.10;0.10;;;11.60;99.90;;;;;;5060351;28;20193;-84
2023/04/28 05:56:54;;;;;;;0.03;0.03;;;11.40;99.90;;;;;;5061853;28;20219;-83
2023/04/28 05:59:20;;;;;;;0.10;0.10;;;11.10;99.90;;;;;;5060363;28;20181;-83
2023/04/28 06:01:45;;;;;;;0.10;0.10;;;11.00;99.90;;;;;;5062117;28;20185;-83
2023/04/28 06:04:11;;;;;;;0.10;0.10;;;10.90;99.90;;;;;;5060025;28;20200;-83
2023/04/28 06:06:38;;;;;;;0.10;0.10;;;10.70;99.90;;;;;;5061495;28;20197;-83
2023/04/28 06:09:04;;;;;;;0.10;0.10;;;10.70;99.90;;;;;;5058381;28;20217;-84
2023/04/28 06:11:30;;;;;;;0.10;0.10;;;10.80;99.90;;;;;;5063035;28;20205;-83
2023/04/28 06:13:55;;;;;;;0.10;0.10;;;10.80;99.90;;;;;;5063442;28;20231;-83
2023/04/28 06:16:22;;;;;;;0.10;0.10;;;10.80;99.90;;;;;;5060628;28;20648;-83
2023/04/28 06:18:48;;;;;;;0.10;0.10;;;10.70;99.90;;;;;;5059405;28;20243;-83
2023/04/28 06:21:13;;;;;;;0.10;0.10;;;10.80;99.90;;;;;;5062263;28;20204;-83
2023/04/28 06:23:39;;;;;;;0.10;0.10;;;10.90;99.90;;;;;;5061239;28;20343;-83
2023/04/28 06:26:05;;;;;;;0.10;0.10;;;11.00;99.90;;;;;;5059219;28;20181;-83
2023/04/28 06:28:30;;;;;;;0.10;0.10;;;11.10;99.90;;;;;;5051211;28;20266;-82
2023/04/28 06:30:58;;;;;;;0.10;0.10;;;11.20;99.90;;;;;;5050988;28;20186;-83
2023/04/28 06:33:24;;;;;;;0.10;0.10;;;11.10;99.90;;;;;;5052121;28;20217;-83
2023/04/28 06:35:50;;;;;;;0.10;0.10;;;11.30;99.90;;;;;;5050058;28;20478;-83
2023/04/28 06:38:15;;;;;;;0.10;0.10;;;11.30;99.90;;;;;;5058105;28;20206;-83
2023/04/28 06:40:41;;;;;;;0.10;0.10;;;11.20;99.90;;;;;;5062165;28;20203;-83
2023/04/28 06:43:06;;;;;;;0.10;0.10;;;11.20;99.90;;;;;;5061855;28;20276;-84
2023/04/28 06:45:32;;;;;;;0.10;0.10;;;11.10;99.90;;;;;;5059984;28;20212;-83
2023/04/28 06:47:57;;;;;;;0.10;0.10;;;10.90;99.90;;;;;;5055900;28;20304;-83
2023/04/28 06:50:23;;;;;;;0.10;0.10;;;10.70;99.90;;;;;;5060886;28;20238;-83
2023/04/28 06:52:49;;;;;;;0.10;0.10;;;10.60;99.90;;;;;;5056823;28;20185;-83
2023/04/28 06:55:16;;;;;;;0.10;0.10;;;10.80;99.90;;;;;;5058172;28;20177;-83
2023/04/28 06:57:41;;;;;;;0.10;0.10;;;11.10;99.90;;;;;;5061735;28;20735;-83
2023/04/28 07:00:08;;;;;;;0.00;0.00;;;11.20;99.90;;;;;;5061893;28;20204;-83
2023/04/28 07:02:34;;;;;;;0.10;0.10;;;11.20;99.90;;;;;;5052217;28;20271;-82
2023/04/28 07:04:59;;;;;;;0.10;0.10;;;11.50;99.90;;;;;;5055913;28;20228;-83
2023/04/28 07:07:25;;;;;;;0.10;0.10;;;11.30;99.90;;;;;;5056983;28;20605;-85
2023/04/28 07:09:52;;;;;;;0.10;0.10;;;11.20;99.90;;;;;;5060285;28;20181;-83
2023/04/28 07:12:17;;;;;;;0.10;0.10;;;11.20;99.90;;;;;;5055626;28;20192;-83
2023/04/28 07:14:43;;;;;;;0.10;0.10;;;11.40;99.90;;;;;;5060642;28;20493;-83
2023/04/28 07:17:09;;;;;;;0.10;0.10;;;11.60;99.90;;;;;;5055718;28;20295;-82
2023/04/28 07:19:34;;;;;;;0.10;0.10;;;11.40;99.90;;;;;;5058179;28;20597;-83
2023/04/28 07:22:00;;;;;;;0.10;0.10;;;11.50;99.90;;;;;;5058704;28;20189;-83
2023/04/28 07:24:26;;;;;;;0.10;0.10;;;11.30;99.90;;;;;;5058367;28;20597;-83
2023/04/28 07:26:51;;;;;;;0.10;0.10;;;11.40;99.90;;;;;;5060653;28;20205;-82
2023/04/28 07:29:18;;;;;;;0.10;0.10;;;11.50;99.90;;;;;;5056880;28;20181;-82
2023/04/28 07:31:43;;;;;;;0.10;0.10;;;11.70;99.90;;;;;;5059588;28;20214;-83
2023/04/28 07:34:09;;;;;;;0.00;0.00;;;11.90;99.90;;;;;;5060372;28;20590;-81
2023/04/28 07:36:35;;;;;;;0.10;0.10;;;11.80;99.90;;;;;;5056657;28;20184;-83
2023/04/28 07:39:01;;;;;;;0.10;0.10;;;11.70;99.90;;;;;;5063083;28;20229;-83
2023/04/28 07:41:27;;;;;;;0.10;0.10;;;11.80;99.90;;;;;;5061747;28;20181;-82
2023/04/28 07:43:53;;;;;;;0.10;0.10;;;11.80;99.90;;;;;;5056689;28;20200;-83
2023/04/28 07:46:19;;;;;;;0.10;0.10;;;11.50;99.90;;;;;;5061419;28;20181;-83
2023/04/28 07:48:44;;;;;;;0.10;0.10;;;11.80;99.90;;;;;;5063267;28;20320;-82
2023/04/28 07:51:10;;;;;;;0.07;0.07;;;12.00;99.90;;;;;;5061795;28;20189;-82
2023/04/28 07:53:35;;;;;;;0.10;0.10;;;12.10;99.90;;;;;;5059453;28;20209;-83
2023/04/28 07:56:01;;;;;;;0.10;0.10;;;11.80;99.90;;;;;;5062947;28;20232;-83
2023/04/28 07:58:27;;;;;;;0.10;0.10;;;11.90;99.90;;;;;;5061618;28;20225;-82
2023/04/28 08:00:52;;;;;;;0.10;0.10;;;12.00;99.90;;;;;;5056491;28;20185;-83
2023/04/28 08:03:18;;;;;;;0.10;0.10;;;12.30;99.90;;;;;;5047771;28;20196;-82
2023/04/28 08:05:44;;;;;;;0.10;0.10;;;12.10;99.90;;;;;;5044742;28;20189;-82
2023/04/28 08:08:10;;;;;;;0.10;0.10;;;11.90;99.90;;;;;;5046352;28;20220;-81
2023/04/28 08:10:39;;;;;;;0.10;0.10;;;11.80;99.90;;;;;;5055193;28;20201;-85
2023/04/28 08:13:04;;;;;;;0.10;0.10;;;11.80;99.90;;;;;;5058372;28;20213;-83
2023/04/28 08:15:30;;;;;;;0.10;0.10;;;11.70;99.90;;;;;;5058282;28;20206;-85
2023/04/28 08:17:56;;;;;;;0.10;0.10;;;11.80;99.90;;;;;;5056661;28;20656;-85
2023/04/28 08:20:21;;;;;;;0.10;0.10;;;12.10;99.90;;;;;;5056934;28;20217;-85
2023/04/28 08:22:47;;;;;;;0.10;0.10;;;12.20;99.90;;;;;;5078283;28;20195;-84
2023/04/28 08:25:13;;;;;;;0.10;0.10;;;12.10;99.90;;;;;;5075152;28;20287;-84
2023/04/28 08:27:38;;;;;;;0.10;0.10;;;12.00;99.90;;;;;;5057800;28;20224;-85
2023/04/28 08:30:07;;;;;;;0.10;0.10;;;12.30;99.90;;;;;;5057374;28;20185;-85
2023/04/28 08:32:32;;;;;;;0.10;0.10;;;12.50;99.90;;;;;;5057082;28;20181;-85
2023/04/28 08:34:59;;;;;;;0.10;0.10;;;12.60;99.90;;;;;;5054770;28;20189;-85
2023/04/28 08:37:25;;;;;;;0.10;0.10;;;12.90;99.90;;;;;;5057855;28;20205;-85
2023/04/28 08:39:58;;;;;;;0.10;0.10;;;13.10;99.90;;;;;;5053959;28;20215;-84
2023/04/28 08:42:25;;;;;;;0.00;0.00;;;13.40;99.90;;;;;;5054253;28;20200;-84
2023/04/28 08:44:58;;;;;;;0.10;0.10;;;13.70;99.90;;;;;;5049510;28;20207;-86
2023/04/28 08:47:30;;;;;;;0.10;0.10;;;13.70;99.90;;;;;;5059190;28;20220;-83
2023/04/28 08:50:01;;;;;;;0.10;0.10;;;13.30;99.90;;;;;;5057024;28;20176;-83
2023/04/28 08:52:28;;;;;;;0.10;0.10;;;13.50;99.90;;;;;;5058833;28;20185;-83
2023/04/28 08:54:55;;;;;;;0.03;0.03;;;14.00;99.90;;;;;;5056999;28;20194;-82
2023/04/28 08:57:20;;;;;;;0.10;0.10;;;14.50;99.90;;;;;;5059617;28;20268;-84
2023/04/28 08:59:46;;;;;;;0.10;0.10;;;14.90;99.90;;;;;;5058184;28;20195;-82
2023/04/28 09:02:12;;;;;;;0.10;0.10;;;14.70;99.90;;;;;;5056931;28;20188;-82
2023/04/28 09:04:37;;;;;;;0.10;0.10;;;14.10;99.90;;;;;;5059162;28;20198;-83
2023/04/28 09:07:09;;;;;;;0.10;0.10;;;13.70;99.90;;;;;;5058501;28;20305;-83
2023/04/28 09:09:35;;;;;;;0.10;0.10;;;14.20;99.90;;;;;;5056315;28;21351;-83
2023/04/28 09:12:03;;;;;;;0.10;0.10;;;14.90;99.90;;;;;;5053613;28;20184;-83
2023/04/28 09:14:33;;;;;;;0.10;0.10;;;15.40;99.90;;;;;;5051404;28;21088;-82
2023/04/28 09:16:59;;;;;;;0.00;0.00;;;15.60;99.90;;;;;;5058836;28;20554;-83
2023/04/28 09:19:35;;;;;;;0.10;0.10;;;16.00;99.90;;;;;;5058511;28;20334;-83
2023/04/28 09:22:02;;;;;;;0.10;0.10;;;15.80;99.90;;;;;;5055813;28;20207;-83
2023/04/28 09:24:32;;;;;;;0.10;0.10;;;15.80;99.90;;;;;;5053079;28;20193;-83
2023/04/28 09:27:14;;;;;;;0.10;0.10;;;15.80;99.90;;;;;;5057585;28;20208;-82
2023/04/28 09:29:51;;;;;;;0.10;0.10;;;15.90;99.90;;;;;;5053575;28;20223;-83
2023/04/28 09:32:18;;;;;;;0.10;0.10;;;15.80;99.90;;;;;;5060287;28;21159;-83
2023/04/28 09:34:46;;;;;;;0.10;0.10;;;16.00;99.90;;;;;;5057650;28;20238;-83
2023/04/28 09:37:20;;;;;;;0.10;0.10;;;16.40;99.90;;;;;;5058725;28;20209;-83
2023/04/28 09:39:49;;;;;;;0.10;0.10;;;16.50;99.90;;;;;;5061043;28;20193;-83
2023/04/28 09:42:37;;;;;;;0.10;0.10;;;16.60;99.90;;;;;;5060212;28;20666;-83
2023/04/28 09:45:04;;;;;;;0.10;0.10;;;16.70;99.90;;;;;;5062576;28;20177;-82
2023/04/28 09:47:32;;;;;;;0.10;0.10;;;16.60;99.90;;;;;;5056616;28;20212;-83
2023/04/28 09:49:59;;;;;;;0.10;0.10;;;16.50;99.90;;;;;;5056519;28;20226;-83
2023/04/28 09:52:26;;;;;;;0.10;0.10;;;16.50;99.90;;;;;;5058555;28;20268;-83
2023/04/28 09:54:53;;;;;;;0.10;0.10;;;16.70;99.90;;;;;;5060371;28;20280;-83
2023/04/28 09:57:20;;;;;;;0.10;0.10;;;16.80;99.90;;;;;;5062570;28;20613;-83
2023/04/28 09:59:51;;;;;;;0.10;0.10;;;17.10;99.90;;;;;;5061881;28;20903;-83
2023/04/28 10:02:17;;;;;;;0.10;0.10;;;17.50;99.90;;;;;;5056374;28;20185;-83
2023/04/28 10:04:48;;;;;;;0.10;0.10;;;17.20;99.90;;;;;;5063981;28;20212;-83
2023/04/28 10:07:19;;;;;;;0.10;0.10;;;17.10;99.90;;;;;;5061535;28;20217;-83
2023/04/28 10:09:52;;;;;;;0.10;0.10;;;17.20;99.90;;;;;;5062950;28;20181;-83
2023/04/28 10:12:19;;;;;;;0.10;0.10;;;17.20;99.90;;;;;;5063508;28;20183;-83
2023/04/28 10:14:48;;;;;;;0.10;0.10;;;17.60;99.90;;;;;;5063721;28;20209;-83
2023/04/28 10:17:15;;;;;;;0.10;0.10;;;17.30;99.90;;;;;;5060701;28;20688;-83
2023/04/28 10:19:42;;;;;;;0.10;0.10;;;17.60;99.90;;;;;;5060710;28;20207;-83
2023/04/28 10:22:36;;;;;;;0.10;0.10;;;17.90;99.90;;;;;;5062894;28;20692;-83
2023/04/28 10:25:10;;;;;;;0.10;0.10;;;18.20;99.90;;;;;;5030505;28;20205;-83
2023/04/28 10:27:39;;;;;;;0.10;0.10;;;18.40;99.90;;;;;;5056468;28;20204;-83
2023/04/28 10:30:34;;;;;;;0.10;0.10;;;18.50;99.90;;;;;;5057824;28;20201;-83
2023/04/28 10:33:12;;;;;;;0.10;0.10;;;18.40;99.90;;;;;;5044905;28;20181;-83
2023/04/28 10:35:39;;;;;;;0.10;0.10;;;18.90;99.90;;;;;;5058957;28;20181;-83
2023/04/28 10:38:16;;;;;;;0.10;0.10;;;19.10;99.90;;;;;;5058416;28;20213;-82
2023/04/28 10:40:46;;;;;;;0.10;0.10;;;19.00;99.90;;;;;;5062882;28;20234;-83
2023/04/28 10:43:24;;;;;;;0.10;0.10;;;18.90;99.90;;;;;;5058950;28;20196;-83
2023/04/28 10:45:53;;;;;;;0.10;0.10;;;18.70;99.90;;;;;;5057627;28;20193;-83
2023/04/28 10:48:19;;;;;;;0.10;0.10;;;18.60;99.90;;;;;;5058702;28;20221;-83
2023/04/28 10:53:53;;;;;;;0.10;0.10;;;18.50;99.90;;;;;;5063077;28;20381;-83
2023/04/28 10:56:26;;;;;;;0.10;0.10;;;18.40;99.90;;;;;;5057287;28;20177;-82
2023/04/28 10:58:58;;;;;;;0.10;0.10;;;18.40;99.90;;;;;;5065736;28;20328;-83
2023/04/28 11:01:29;;;;;;;0.10;0.10;;;18.50;99.90;;;;;;5062056;28;20177;-83
2023/04/28 11:04:16;;;;;;;0.10;0.10;;;18.40;99.90;;;;;;5064570;28;20266;-83
2023/04/28 11:06:46;;;;;;;0.10;0.10;;;18.20;99.90;;;;;;5059452;28;20212;-83
2023/04/28 11:09:16;;;;;;;0.10;0.10;;;18.50;99.90;;;;;;5064292;28;20185;-83
2023/04/28 11:11:59;;;;;;;0.10;0.10;;;18.80;99.90;;;;;;5064053;28;20276;-83
2023/04/28 11:14:28;;;;;;;0.10;0.10;;;18.80;99.90;;;;;;5062362;28;20585;-83
2023/04/28 11:16:59;;;;;;;0.10;0.10;;;18.80;99.90;;;;;;5063589;28;20181;-83
2023/04/28 11:19:27;;;;;;;0.10;0.10;;;19.00;99.90;;;;;;5060933;28;20259;-82
2023/04/28 11:21:58;;;;;;;0.10;0.10;;;19.10;99.90;;;;;;5064865;28;20177;-82
2023/04/28 11:24:26;;;;;;;0.10;0.10;;;19.20;99.90;;;;;;5063610;28;20230;-83
2023/04/28 11:26:52;;;;;;;0.10;0.10;;;19.50;99.90;;;;;;5062212;28;20213;-82
2023/04/28 11:29:17;;;;;;;0.10;0.10;;;19.50;99.90;;;;;;5059934;28;20172;-83
2023/04/28 11:31:52;;;;;;;0.10;0.10;;;19.20;99.90;;;;;;5063402;28;20663;-82
2023/04/28 11:34:20;;;;;;;0.10;0.10;;;19.20;99.90;;;;;;5061931;28;20187;-83
2023/04/28 11:36:46;;;;;;;0.10;0.10;;;19.20;99.90;;;;;;5061906;28;20181;-83
2023/04/28 11:39:12;;;;;;;0.10;0.10;;;18.90;99.90;;;;;;5062949;28;20264;-83
2023/04/28 11:41:43;;;;;;;0.10;0.10;;;18.90;99.90;;;;;;5061469;28;20200;-82
2023/04/28 11:44:14;;;;;;;0.10;0.10;;;19.10;99.90;;;;;;5062144;28;20238;-83
2023/04/28 11:46:54;;;;;;;0.10;0.10;;;19.30;99.90;;;;;;5058083;28;20710;-83
2023/04/28 11:49:23;;;;;;;0.10;0.10;;;19.60;99.90;;;;;;5062273;28;20187;-83
2023/04/28 11:51:49;;;;;;;0.10;0.10;;;20.00;99.90;;;;;;5062828;28;20180;-83
2023/04/28 11:54:24;;;;;;;0.10;0.10;;;20.10;99.90;;;;;;5062468;28;20207;-83
2023/04/28 11:56:51;;;;;;;0.10;0.10;;;20.40;99.90;;;;;;5063198;28;20234;-82
2023/04/28 11:59:19;;;;;;;0.10;0.10;;;20.50;99.90;;;;;;5058196;28;20181;-83
2023/04/28 12:01:49;;;;;;;0.10;0.10;;;20.40;99.90;;;;;;5063504;28;20194;-83
2023/04/28 12:04:35;;;;;;;0.10;0.10;;;20.20;99.90;;;;;;5063050;28;20279;-83
2023/04/28 12:07:00;;;;;;;0.10;0.10;;;19.90;99.90;;;;;;5078337;28;20578;-83
2023/04/28 12:09:26;;;;;;;0.10;0.10;;;20.50;99.90;;;;;;5060147;28;20206;-84
2023/04/28 12:12:13;;;;;;;0.10;0.10;;;20.80;99.90;;;;;;5059339;28;20266;-83
2023/04/28 12:15:04;;;;;;;0.10;0.10;;;21.20;99.90;;;;;;5059363;28;20250;-83
2023/04/28 12:17:36;;;;;;;0.10;0.10;;;21.10;99.90;;;;;;5059415;28;20856;-83
2023/04/28 12:20:03;;;;;;;0.10;0.10;;;21.10;99.90;;;;;;5063875;28;20188;-82
2023/04/28 12:22:29;;;;;;;0.10;0.10;;;21.00;99.90;;;;;;5063075;28;20200;-83
2023/04/28 12:25:21;;;;;;;0.10;0.10;;;21.20;99.90;;;;;;5053487;28;20188;-83
2023/04/28 12:28:04;;;;;;;0.10;0.10;;;20.90;99.90;;;;;;5054536;28;20623;-83
2023/04/28 12:30:32;;;;;;;0.10;0.10;;;20.90;99.90;;;;;;5055970;28;20181;-83
2023/04/28 12:32:58;;;;;;;0.10;0.10;;;20.60;99.90;;;;;;5056196;28;20208;-84
2023/04/28 12:35:25;;;;;;;0.10;0.10;;;20.50;99.90;;;;;;5057811;28;20213;-84
2023/04/28 12:37:52;;;;;;;0.10;0.10;;;20.40;99.90;;;;;;5054602;28;20713;-83
2023/04/28 12:40:18;;;;;;;0.10;0.10;;;20.70;99.90;;;;;;5055133;28;20190;-83
2023/04/28 12:42:44;;;;;;;0.10;0.10;;;20.80;99.90;;;;;;5054575;28;20688;-83
2023/04/28 12:45:09;;;;;;;0.10;0.10;;;21.10;99.90;;;;;;5060369;28;20185;-83
2023/04/28 12:47:37;;;;;;;0.10;0.10;;;20.90;99.90;;;;;;5056466;28;20208;-83
2023/04/28 12:50:03;;;;;;;0.10;0.10;;;20.90;99.90;;;;;;5058385;28;20777;-83
2023/04/28 12:52:32;;;;;;;0.10;0.10;;;20.90;99.90;;;;;;5060266;28;20273;-84